Time;durP1;ratioP1;P1;durP2;ratioP2;P2;SDS_P1;SDS_P2;PMS_P1;PMS_P2;Temp;Humidity;BMP_temperature;BMP_pressure;BME280_temperature;BME280_humidity;BME280_pressure;Samples;Min_cycle;Max_cycle;Signal;HPM_P1;HPM_P2
2022/05/18 00:02:04;;;;;;;10.47;5.53;;;18.10;99.90;;;;;;5091717;28;20566;-71
2022/05/18 00:04:30;;;;;;;10.53;5.20;;;18.00;99.90;;;;;;5092892;28;20052;-71
2022/05/18 00:06:56;;;;;;;9.57;4.90;;;18.00;99.90;;;;;;5092557;28;20051;-72
2022/05/18 00:09:21;;;;;;;8.37;5.03;;;18.00;99.90;;;;;;5092746;28;20445;-72
2022/05/18 00:11:47;;;;;;;8.53;4.93;;;18.00;99.90;;;;;;5092618;28;20048;-72
2022/05/18 00:14:13;;;;;;;12.50;5.77;;;17.90;99.90;;;;;;5092812;28;20048;-72
2022/05/18 00:16:39;;;;;;;9.10;5.20;;;17.90;99.90;;;;;;5091796;28;20051;-71
2022/05/18 00:19:05;;;;;;;9.50;4.77;;;17.90;99.90;;;;;;5092344;28;20046;-71
2022/05/18 00:21:31;;;;;;;10.13;5.30;;;17.90;99.90;;;;;;5125825;28;20134;-72
2022/05/18 00:23:58;;;;;;;7.00;4.63;;;17.80;99.90;;;;;;5092378;28;20040;-72
2022/05/18 00:26:25;;;;;;;9.37;5.90;;;17.80;99.90;;;;;;5091572;28;20117;-72
2022/05/18 00:28:51;;;;;;;11.20;5.40;;;17.80;99.90;;;;;;5092195;28;20541;-72
2022/05/18 00:31:18;;;;;;;9.00;4.57;;;17.80;99.90;;;;;;5091668;28;20119;-72
2022/05/18 00:33:48;;;;;;;9.17;4.67;;;17.80;99.90;;;;;;5091564;28;20077;-71
2022/05/18 00:36:13;;;;;;;9.17;5.50;;;17.70;99.90;;;;;;5091266;28;20491;-72
2022/05/18 00:38:39;;;;;;;8.83;5.00;;;17.70;99.90;;;;;;5090812;28;20104;-71
2022/05/18 00:41:05;;;;;;;8.90;5.20;;;17.70;99.90;;;;;;5092415;28;20097;-71
2022/05/18 00:43:31;;;;;;;11.13;5.50;;;17.60;99.90;;;;;;5092498;28;20040;-71
2022/05/18 00:46:03;;;;;;;9.07;5.70;;;17.60;99.90;;;;;;5092400;28;20059;-72
2022/05/18 00:48:29;;;;;;;8.73;5.67;;;17.60;99.90;;;;;;5094059;28;20044;-71
2022/05/18 00:50:58;;;;;;;10.43;5.37;;;17.60;99.90;;;;;;5096023;28;20062;-71
2022/05/18 00:53:48;;;;;;;8.03;5.80;;;17.50;99.90;;;;;;5096134;28;20411;-71
2022/05/18 00:56:21;;;;;;;12.20;6.40;;;17.50;99.90;;;;;;5096574;28;20396;-71
2022/05/18 00:58:53;;;;;;;10.50;5.70;;;17.40;99.90;;;;;;5096263;28;20414;-71
2022/05/18 01:01:19;;;;;;;9.40;5.03;;;17.40;99.90;;;;;;5096094;28;20060;-71
2022/05/18 01:03:48;;;;;;;10.50;5.90;;;17.40;99.90;;;;;;5095985;28;20051;-71
2022/05/18 01:06:39;;;;;;;8.77;5.67;;;17.40;99.90;;;;;;5095833;28;20044;-72
2022/05/18 01:09:09;;;;;;;9.20;5.77;;;17.40;99.90;;;;;;5095792;28;20391;-71
2022/05/18 01:11:39;;;;;;;12.77;5.50;;;17.30;99.90;;;;;;5095827;28;20058;-71
2022/05/18 01:14:12;;;;;;;10.73;5.80;;;17.30;99.90;;;;;;5095527;28;20048;-72
2022/05/18 01:16:38;;;;;;;9.47;5.60;;;17.30;99.90;;;;;;5095970;28;20106;-72
2022/05/18 01:19:10;;;;;;;8.83;5.47;;;17.30;99.90;;;;;;5095532;28;20438;-72
2022/05/18 01:21:41;;;;;;;9.60;5.70;;;17.40;99.90;;;;;;5095802;28;20093;-72
2022/05/18 01:24:31;;;;;;;9.47;6.03;;;17.40;99.90;;;;;;5095495;28;20051;-72
2022/05/18 01:27:00;;;;;;;9.90;5.57;;;17.40;99.90;;;;;;5095588;28;20052;-72
2022/05/18 01:29:29;;;;;;;9.47;5.63;;;17.40;99.90;;;;;;5095586;28;20042;-72
2022/05/18 01:31:54;;;;;;;10.03;5.50;;;17.40;99.90;;;;;;5095261;28;20048;-72
2022/05/18 01:34:24;;;;;;;8.53;5.33;;;17.30;99.90;;;;;;5095399;28;20442;-72
2022/05/18 01:36:50;;;;;;;11.90;5.77;;;17.30;99.90;;;;;;5095334;28;20079;-72
2022/05/18 01:39:30;;;;;;;9.03;6.10;;;17.30;99.90;;;;;;5094934;28;20055;-71
2022/05/18 01:42:44;;;;;;;11.30;5.73;;;17.30;99.90;;;;;;5095188;28;20052;-72
2022/05/18 01:45:10;;;;;;;8.20;5.33;;;17.20;99.90;;;;;;5094869;28;20428;-72
2022/05/18 01:47:38;;;;;;;11.10;6.10;;;17.30;99.90;;;;;;5095332;28;20048;-71
2022/05/18 01:50:12;;;;;;;9.50;5.23;;;17.30;99.90;;;;;;5094812;28;20503;-72
2022/05/18 01:52:38;;;;;;;9.70;5.73;;;17.30;99.90;;;;;;5094475;28;20052;-71
2022/05/18 01:55:05;;;;;;;8.00;5.50;;;17.30;99.90;;;;;;5094643;28;20475;-72
2022/05/18 01:57:34;;;;;;;10.30;5.60;;;17.30;99.90;;;;;;5093834;28;20119;-71
2022/05/18 02:00:00;;;;;;;9.67;5.80;;;17.20;99.90;;;;;;5093657;28;20170;-72
2022/05/18 02:02:26;;;;;;;9.67;5.77;;;17.20;99.90;;;;;;5095184;28;20122;-71
2022/05/18 02:04:52;;;;;;;11.13;5.83;;;17.20;99.90;;;;;;5095060;28;20531;-72
2022/05/18 02:07:17;;;;;;;9.33;6.00;;;17.10;99.90;;;;;;5094647;28;20173;-72
2022/05/18 02:09:43;;;;;;;10.60;5.70;;;17.10;99.90;;;;;;5094881;28;20091;-71
2022/05/18 02:12:10;;;;;;;11.57;5.60;;;17.10;99.90;;;;;;5094604;28;20048;-72
2022/05/18 02:14:36;;;;;;;9.33;5.80;;;17.00;99.90;;;;;;5093580;28;20483;-72
2022/05/18 02:17:02;;;;;;;10.37;6.00;;;17.00;99.90;;;;;;5094359;28;20392;-72
2022/05/18 02:19:28;;;;;;;11.43;5.90;;;17.10;99.90;;;;;;5093515;28;20044;-71
2022/05/18 02:21:53;;;;;;;9.47;5.97;;;17.00;99.90;;;;;;5094585;28;20059;-71
2022/05/18 02:24:19;;;;;;;9.67;5.70;;;17.00;99.90;;;;;;5094226;28;20040;-71
2022/05/18 02:26:45;;;;;;;11.90;5.80;;;;;;;;;;5094530;28;20416;-71
2022/05/18 02:29:11;;;;;;;10.03;5.87;;;;;;;;;;5093980;28;20131;-72
2022/05/18 02:31:38;;;;;;;9.97;5.60;;;;;;;;;;5094481;28;20051;-72
2022/05/18 02:34:04;;;;;;;10.70;5.80;;;;;;;;;;5094150;28;20047;-72
2022/05/18 02:36:30;;;;;;;8.60;6.23;;;;;;;;;;5094351;28;20048;-71
2022/05/18 02:38:56;;;;;;;12.23;6.27;;;16.90;99.90;;;;;;5094031;28;20058;-71
2022/05/18 02:41:22;;;;;;;9.33;5.73;;;16.90;99.90;;;;;;5092720;28;20052;-71
2022/05/18 02:43:47;;;;;;;9.57;6.40;;;16.80;99.90;;;;;;5094002;28;20131;-71
2022/05/18 02:46:16;;;;;;;9.77;6.03;;;16.70;99.90;;;;;;5093008;28;20130;-71
2022/05/18 02:48:43;;;;;;;11.03;6.57;;;16.70;99.90;;;;;;5094105;28;20058;-71
2022/05/18 02:51:09;;;;;;;13.97;6.00;;;;;;;;;;5093741;28;20047;-72
2022/05/18 02:53:36;;;;;;;9.43;6.70;;;16.60;99.90;;;;;;5092888;28;20079;-71
2022/05/18 02:56:08;;;;;;;11.53;5.83;;;16.60;99.90;;;;;;5093858;28;20043;-71
2022/05/18 02:58:36;;;;;;;9.93;7.07;;;16.60;99.90;;;;;;5093953;28;20080;-72
2022/05/18 03:01:08;;;;;;;11.97;6.23;;;16.50;99.90;;;;;;5093902;28;20079;-73
2022/05/18 03:03:35;;;;;;;14.20;6.33;;;16.50;99.90;;;;;;5093824;28;20104;-71
2022/05/18 03:06:03;;;;;;;11.27;6.93;;;16.50;99.90;;;;;;5093087;28;20130;-71
2022/05/18 03:08:30;;;;;;;11.43;6.60;;;16.40;99.90;;;;;;5093676;28;20407;-71
2022/05/18 03:10:55;;;;;;;12.47;6.37;;;16.40;99.90;;;;;;5092238;28;20492;-72
2022/05/18 03:13:21;;;;;;;14.80;6.93;;;16.40;99.90;;;;;;5091997;28;20043;-72
2022/05/18 03:15:47;;;;;;;10.80;7.00;;;16.40;99.90;;;;;;5126820;27;20126;-72
2022/05/18 03:18:14;;;;;;;9.43;6.93;;;16.40;99.90;;;;;;5091907;28;20092;-72
2022/05/18 03:23:34;;;;;;;;;;;16.30;99.90;;;;;;5092537;28;20059;-71
2022/05/18 03:26:22;;;;;;;11.55;6.72;;;16.30;99.90;;;;;;5093389;28;20383;-71
2022/05/18 03:28:50;;;;;;;9.30;6.03;;;16.30;99.90;;;;;;5093368;28;20044;-71
2022/05/18 03:31:16;;;;;;;11.10;7.30;;;16.30;99.90;;;;;;5092958;28;20048;-71
2022/05/18 03:33:42;;;;;;;11.60;6.47;;;16.30;99.90;;;;;;5093147;28;20141;-72
2022/05/18 03:36:12;;;;;;;12.97;6.70;;;16.30;99.90;;;;;;5092935;28;20073;-72
2022/05/18 03:38:39;;;;;;;11.40;7.37;;;16.30;99.90;;;;;;5093196;28;20044;-71
2022/05/18 03:41:06;;;;;;;9.80;6.57;;;16.30;99.90;;;;;;5093289;28;20098;-71
2022/05/18 03:43:32;;;;;;;11.70;6.90;;;16.20;99.90;;;;;;5092708;28;20059;-71
2022/05/18 03:46:01;;;;;;;10.43;7.00;;;16.20;99.90;;;;;;5091966;28;20075;-71
2022/05/18 03:48:28;;;;;;;12.43;7.00;;;16.20;99.90;;;;;;5092573;28;20048;-71
2022/05/18 03:50:55;;;;;;;11.70;7.10;;;16.20;99.90;;;;;;5092905;28;20552;-71
2022/05/18 03:53:21;;;;;;;11.07;7.47;;;16.10;99.90;;;;;;5092819;28;20480;-71
2022/05/18 03:55:46;;;;;;;12.87;8.00;;;16.20;99.90;;;;;;5092996;28;20297;-72
2022/05/18 03:58:14;;;;;;;9.80;6.90;;;16.10;99.90;;;;;;5092702;28;20052;-72
2022/05/18 04:00:42;;;;;;;12.33;7.97;;;16.10;99.90;;;;;;5092739;28;20032;-71
2022/05/18 04:03:09;;;;;;;10.57;7.67;;;16.10;99.90;;;;;;5092780;28;20131;-71
2022/05/18 04:05:37;;;;;;;12.17;7.27;;;16.20;99.90;;;;;;5092857;28;20047;-71
2022/05/18 04:08:04;;;;;;;11.33;7.13;;;16.20;99.90;;;;;;5092811;28;20083;-71
2022/05/18 04:10:30;;;;;;;11.27;7.33;;;16.20;99.90;;;;;;5091262;28;20147;-72
2022/05/18 04:12:56;;;;;;;12.07;6.93;;;16.20;99.90;;;;;;5092783;28;20175;-72
2022/05/18 04:15:21;;;;;;;14.17;7.27;;;16.20;99.90;;;;;;5092433;28;20050;-72
2022/05/18 04:17:48;;;;;;;11.93;8.17;;;16.20;99.90;;;;;;5093115;28;20476;-71
2022/05/18 04:20:20;;;;;;;11.23;7.73;;;16.20;99.90;;;;;;5091340;28;20056;-72
2022/05/18 04:22:47;;;;;;;11.33;7.60;;;16.30;99.90;;;;;;5075184;28;20294;-71
2022/05/18 04:25:15;;;;;;;12.37;7.80;;;16.30;99.90;;;;;;5096571;28;20134;-72
2022/05/18 04:27:42;;;;;;;10.40;7.23;;;16.30;99.90;;;;;;5096724;28;20289;-71
2022/05/18 04:30:09;;;;;;;14.17;8.20;;;16.40;99.90;;;;;;5096559;28;20101;-71
2022/05/18 04:32:38;;;;;;;12.67;8.20;;;16.40;99.90;;;;;;5096368;28;20047;-71
2022/05/18 04:35:04;;;;;;;11.27;7.10;;;16.40;99.90;;;;;;5096697;28;20051;-71
2022/05/18 04:37:30;;;;;;;11.23;7.20;;;16.40;99.90;;;;;;5096329;28;20050;-72
2022/05/18 04:39:55;;;;;;;12.33;8.47;;;16.50;99.90;;;;;;5096667;28;20174;-72
2022/05/18 04:42:22;;;;;;;12.90;8.30;;;16.60;99.90;;;;;;5096232;28;20036;-72
2022/05/18 04:44:50;;;;;;;11.90;8.00;;;16.70;99.90;;;;;;5096330;28;20508;-71
2022/05/18 04:47:19;;;;;;;11.87;8.00;;;16.80;99.90;;;;;;5096270;28;20400;-73
2022/05/18 04:49:45;;;;;;;12.33;7.63;;;16.80;99.90;;;;;;5096383;28;20044;-72
2022/05/18 04:52:11;;;;;;;12.53;7.50;;;16.80;99.90;;;;;;5096533;28;20044;-72
2022/05/18 04:54:37;;;;;;;11.70;8.07;;;16.90;99.90;;;;;;5095968;28;20488;-72
2022/05/18 04:57:03;;;;;;;14.13;8.53;;;17.00;99.90;;;;;;5095129;28;20167;-72
2022/05/18 04:59:29;;;;;;;10.97;7.87;;;17.00;99.90;;;;;;5096109;28;20404;-72
2022/05/18 05:01:55;;;;;;;11.37;8.10;;;17.10;99.90;;;;;;5096256;28;20044;-72
2022/05/18 05:04:21;;;;;;;11.60;7.97;;;17.00;99.90;;;;;;5094891;28;20051;-72
2022/05/18 05:06:47;;;;;;;11.87;8.40;;;17.00;99.90;;;;;;5096069;28;20048;-72
2022/05/18 05:09:13;;;;;;;12.00;8.80;;;17.00;99.90;;;;;;5078229;28;20113;-71
2022/05/18 05:11:39;;;;;;;9.97;7.80;;;17.00;99.90;;;;;;5095598;28;20055;-72
2022/05/18 05:14:05;;;;;;;12.17;8.30;;;17.10;99.90;;;;;;5094622;28;20050;-71
2022/05/18 05:16:32;;;;;;;15.07;9.40;;;17.20;99.90;;;;;;5094473;28;20122;-72
2022/05/18 05:18:59;;;;;;;10.70;8.63;;;17.30;99.90;;;;;;5095812;28;20054;-72
2022/05/18 05:21:25;;;;;;;9.87;8.67;;;17.40;99.90;;;;;;5095502;28;20048;-72
2022/05/18 05:23:50;;;;;;;13.93;9.07;;;17.60;99.90;;;;;;5094415;28;20443;-71
2022/05/18 05:26:16;;;;;;;13.97;8.37;;;17.70;99.90;;;;;;5094367;28;20096;-72
2022/05/18 05:28:42;;;;;;;13.60;8.17;;;17.90;99.90;;;;;;5094275;28;20193;-72
2022/05/18 05:31:11;;;;;;;11.67;8.20;;;18.00;99.90;;;;;;5095755;28;20123;-72
2022/05/18 05:33:38;;;;;;;13.97;8.80;;;18.20;99.90;;;;;;5095302;28;20040;-72
2022/05/18 05:36:05;;;;;;;12.50;9.37;;;18.50;99.90;;;;;;5093073;28;20048;-72
2022/05/18 05:38:31;;;;;;;12.27;8.70;;;18.70;99.90;;;;;;5093988;28;20399;-72
2022/05/18 05:40:58;;;;;;;13.03;9.30;;;19.00;99.90;;;;;;5095211;28;20063;-72
2022/05/18 05:43:24;;;;;;;12.30;8.77;;;19.20;99.90;;;;;;5095279;28;20044;-73
2022/05/18 05:46:03;;;;;;;14.27;9.87;;;19.50;99.90;;;;;;5095375;28;20480;-72
2022/05/18 05:48:30;;;;;;;11.93;8.57;;;;;;;;;;5095005;28;20190;-72
2022/05/18 05:50:57;;;;;;;13.17;9.17;;;20.80;99.90;;;;;;5095363;28;20056;-72
2022/05/18 05:53:23;;;;;;;10.80;8.93;;;;;;;;;;5094848;28;20052;-73
2022/05/18 05:55:50;;;;;;;11.50;8.40;;;;;;;;;;5095221;28;20048;-72
2022/05/18 05:58:17;;;;;;;12.37;8.83;;;;;;;;;;5095207;28;20048;-72
2022/05/18 06:00:43;;;;;;;11.20;8.73;;;24.20;99.90;;;;;;5093562;28;20048;-72
2022/05/18 06:03:08;;;;;;;11.87;9.30;;;25.00;99.90;;;;;;5095176;28;20122;-73
2022/05/18 06:05:34;;;;;;;12.83;9.70;;;25.60;94.60;;;;;;5094646;28;20048;-72
2022/05/18 06:07:59;;;;;;;14.47;8.70;;;26.30;80.00;;;;;;5094815;28;20048;-73
2022/05/18 06:10:25;;;;;;;13.23;8.30;;;26.60;93.00;;;;;;5093693;28;20048;-74
2022/05/18 06:12:51;;;;;;;15.60;8.40;;;27.20;88.30;;;;;;5093956;28;20135;-73
2022/05/18 06:15:17;;;;;;;13.80;8.17;;;;;;;;;;5095011;28;20040;-73
2022/05/18 06:17:43;;;;;;;13.03;8.00;;;28.00;86.90;;;;;;5094384;28;20047;-73
2022/05/18 06:20:09;;;;;;;14.07;8.67;;;28.50;67.70;;;;;;5093325;28;20040;-73
2022/05/18 06:22:35;;;;;;;12.47;8.13;;;28.70;64.50;;;;;;5094085;28;20376;-73
2022/05/18 06:25:00;;;;;;;14.83;8.63;;;28.60;61.80;;;;;;5093707;28;20051;-73
2022/05/18 06:27:26;;;;;;;12.50;8.77;;;28.80;61.00;;;;;;5094419;28;20445;-73
2022/05/18 06:29:52;;;;;;;11.77;8.20;;;28.60;59.90;;;;;;5094537;28;20039;-73
2022/05/18 06:32:18;;;;;;;15.50;8.70;;;28.80;59.70;;;;;;5094465;28;20047;-73
2022/05/18 06:34:45;;;;;;;13.33;9.47;;;;;;;;;;5094057;28;20047;-73
2022/05/18 06:37:12;;;;;;;16.63;8.87;;;30.00;90.60;;;;;;5094204;28;20055;-73
2022/05/18 06:39:37;;;;;;;14.48;10.35;;;30.10;55.50;;;;;;5093851;28;20090;-73
2022/05/18 06:42:04;;;;;;;12.20;7.97;;;;;;;;;;5093335;28;20144;-73
2022/05/18 06:44:30;;;;;;;13.50;9.02;;;;;;;;;;5094003;28;20055;-74
2022/05/18 06:47:01;;;;;;;13.00;8.57;;;31.40;49.30;;;;;;5093866;28;20055;-73
2022/05/18 06:49:28;;;;;;;13.30;8.93;;;;;;;;;;5092849;28;20515;-77
2022/05/18 06:51:58;;;;;;;11.35;8.38;;;32.60;45.90;;;;;;5093800;28;20040;-73
2022/05/18 06:54:24;;;;;;;12.02;9.18;;;;;;;;;;5094103;28;20052;-73
2022/05/18 06:56:50;;;;;;;10.73;8.05;;;;;;;;;;5093752;28;20048;-73
2022/05/18 06:59:19;;;;;;;10.93;7.78;;;;;;;;;;5093992;28;20040;-73
2022/05/18 07:01:45;;;;;;;11.05;7.38;;;;;;;;;;5093485;28;20102;-71
2022/05/18 07:04:11;;;;;;;11.32;7.88;;;34.50;42.30;;;;;;5093709;28;20135;-73
2022/05/18 07:06:43;;;;;;;10.25;6.97;;;34.40;42.70;;;;;;5093204;28;20499;-73
2022/05/18 07:09:13;;;;;;;13.48;7.50;;;34.60;41.00;;;;;;5094095;28;20043;-72
2022/05/18 07:11:38;;;;;;;17.33;6.70;;;34.50;40.70;;;;;;5092785;28;20131;-72
2022/05/18 07:14:05;;;;;;;11.32;7.00;;;34.50;40.40;;;;;;5093115;28;20127;-72
2022/05/18 07:16:32;;;;;;;9.23;6.80;;;34.70;40.10;;;;;;5091815;28;20122;-75
2022/05/18 07:18:59;;;;;;;11.00;7.38;;;;;;;;;;5092155;28;20125;-73
2022/05/18 07:21:26;;;;;;;11.23;6.97;;;;;;;;;;5093776;28;20052;-73
2022/05/18 07:23:53;;;;;;;8.90;6.80;;;;;;;;;;5093264;28;20412;-73
2022/05/18 07:26:19;;;;;;;10.40;6.93;;;;;;;;;;5093420;28;20055;-72
2022/05/18 07:28:45;;;;;;;16.15;7.85;;;35.80;69.90;;;;;;5093006;28;20500;-73
2022/05/18 07:31:11;;;;;;;10.60;7.03;;;35.90;38.10;;;;;;5091999;28;20090;-73
2022/05/18 07:33:37;;;;;;;8.93;6.50;;;36.00;38.20;;;;;;5091909;28;20174;-74
2022/05/18 07:36:05;;;;;;;9.38;6.28;;;36.20;38.10;;;;;;5093413;28;20131;-74
2022/05/18 07:38:32;;;;;;;10.38;7.55;;;36.30;37.40;;;;;;5093543;28;20052;-74
2022/05/18 07:40:58;;;;;;;10.30;6.90;;;36.00;37.00;;;;;;5093075;28;20046;-73
2022/05/18 07:43:24;;;;;;;10.93;7.05;;;35.60;37.70;;;;;;5093167;28;20185;-73
2022/05/18 07:45:53;;;;;;;9.57;6.75;;;35.30;38.40;;;;;;5074964;28;20055;-73
2022/05/18 07:48:19;;;;;;;11.30;7.63;;;35.20;38.20;;;;;;5093008;28;20132;-74
2022/05/18 07:50:45;;;;;;;10.82;7.38;;;35.00;38.70;;;;;;5092880;28;20051;-74
2022/05/18 07:53:12;;;;;;;14.32;8.02;;;;;;;;;;5092116;28;20048;-73
2022/05/18 07:55:37;;;;;;;9.90;7.50;;;34.60;37.60;;;;;;5091873;28;20101;-74
2022/05/18 07:58:05;;;;;;;11.63;6.78;;;34.40;38.60;;;;;;5091191;28;20154;-74
2022/05/18 08:00:32;;;;;;;9.60;7.43;;;;;;;;;;5090202;28;20076;-74
2022/05/18 08:02:58;;;;;;;12.10;8.00;;;;;;;;;;5091201;28;20528;-74
2022/05/18 08:05:25;;;;;;;11.10;7.57;;;;;;;;;;5092710;28;20048;-74
2022/05/18 08:07:51;;;;;;;10.25;7.60;;;;;;;;;;5091711;28;20054;-74
2022/05/18 08:15:49;;;;;;;15.82;9.23;;;;;;;;;;5092748;28;20052;-73
2022/05/18 08:18:16;;;;;;;12.55;8.40;;;;;;;;;;5091468;28;20111;-73
2022/05/18 08:20:43;;;;;;;11.80;8.68;;;;;;;;;;5092005;28;20048;-74
2022/05/18 08:23:09;;;;;;;14.38;8.60;;;;;;;;;;5092295;28;20048;-73
2022/05/18 08:25:36;;;;;;;15.10;9.07;;;;;;;;;;5091113;28;20047;-74
2022/05/18 08:28:03;;;;;;;12.45;8.57;;;;;;;;;;5092145;28;20044;-74
2022/05/18 08:30:30;;;;;;;13.40;8.88;;;;;;;;;;5092793;28;20048;-74
2022/05/18 08:32:58;;;;;;;14.13;9.43;;;35.30;37.20;;;;;;5091016;28;20063;-74
2022/05/18 08:35:24;;;;;;;14.07;10.10;;;;;;;;;;5092309;28;20508;-73
2022/05/18 08:37:50;;;;;;;12.63;9.70;;;33.70;39.30;;;;;;5092144;28;20153;-74
2022/05/18 08:40:19;;;;;;;14.25;10.82;;;;;;;;;;5091831;28;20599;-73
2022/05/18 08:42:45;;;;;;;13.75;9.88;;;;;;;;;;5090751;28;20048;-74
2022/05/18 08:45:11;;;;;;;15.95;10.32;;;;;;;;;;5074519;28;20067;-73
2022/05/18 08:47:42;;;;;;;12.48;11.15;;;;;;;;;;5091062;28;20043;-73
2022/05/18 08:50:13;;;;;;;14.13;11.75;;;;;;;;;;5092060;28;20040;-74
2022/05/18 08:52:59;;;;;;;11.90;10.30;;;30.90;42.90;;;;;;5092182;28;20075;-73
2022/05/18 08:55:31;;;;;;;14.20;11.27;;;;;;;;;;5091339;28;20044;-73
2022/05/18 08:57:59;;;;;;;14.02;11.38;;;30.60;44.70;;;;;;5091757;28;20040;-72
2022/05/18 09:00:34;;;;;;;12.90;10.52;;;30.60;74.40;;;;;;5091814;28;20395;-73
2022/05/18 09:03:19;;;;;;;17.38;10.55;;;30.40;45.30;;;;;;5092063;28;20059;-72
2022/05/18 09:06:00;;;;;;;17.38;12.23;;;30.30;46.70;;;;;;5092215;28;20067;-71
2022/05/18 09:08:35;;;;;;;13.15;11.25;;;30.20;46.40;;;;;;5091118;28;20048;-70
2022/05/18 09:11:14;;;;;;;12.70;10.50;;;29.90;46.60;;;;;;5095732;28;20093;-71
2022/05/18 09:13:40;;;;;;;15.07;11.77;;;29.90;47.40;;;;;;5095777;28;20499;-70
2022/05/18 09:16:17;;;;;;;15.15;12.93;;;29.80;47.50;;;;;;5094704;28;20189;-70
2022/05/18 09:18:43;;;;;;;14.63;11.55;;;;;;;;;;5095716;28;20467;-77
2022/05/18 09:21:23;;;;;;;14.52;11.57;;;;;;;;;;5095069;28;20398;-72
2022/05/18 09:23:58;;;;;;;14.90;10.75;;;29.40;61.90;;;;;;5094467;28;20138;-73
2022/05/18 09:26:45;;;;;;;14.88;11.48;;;29.30;49.40;;;;;;5096108;28;20048;-71
2022/05/18 09:29:14;;;;;;;11.20;10.05;;;29.20;53.70;;;;;;5094590;28;20399;-71
2022/05/18 09:32:05;;;;;;;13.32;9.57;;;29.10;49.90;;;;;;5095592;28;20040;-71
2022/05/18 09:34:41;;;;;;;12.50;9.27;;;;;;;;;;5095444;28;20395;-72
2022/05/18 09:37:07;;;;;;;12.30;9.30;;;;;;;;;;5077359;28;20047;-74
2022/05/18 09:39:38;;;;;;;20.20;10.02;;;;;;;;;;5095306;28;20074;-75
2022/05/18 09:42:14;;;;;;;15.00;10.73;;;28.70;50.80;;;;;;5093961;28;20472;-74
2022/05/18 09:44:40;;;;;;;12.63;10.65;;;28.60;51.60;;;;;;5095555;28;20403;-74
2022/05/18 09:47:09;;;;;;;17.02;11.55;;;28.60;52.00;;;;;;5076947;28;20044;-75
2022/05/18 09:49:40;;;;;;;13.77;10.60;;;28.50;52.70;;;;;;5095393;28;20063;-74
2022/05/18 09:52:06;;;;;;;13.10;10.80;;;28.60;53.20;;;;;;5093844;28;20530;-73
2022/05/18 09:54:34;;;;;;;17.88;12.23;;;28.60;53.50;;;;;;5094938;28;20088;-75
2022/05/18 09:57:13;;;;;;;15.77;12.70;;;28.50;53.10;;;;;;5094652;28;20055;-74
2022/05/18 09:59:42;;;;;;;15.60;11.15;;;;;;;;;;5094857;28;20054;-76
2022/05/18 10:07:50;;;;;;;18.13;13.95;;;28.00;54.60;;;;;;5094702;28;20048;-76
2022/05/18 10:10:30;;;;;;;15.68;13.10;;;28.00;55.30;;;;;;5094876;28;20052;-75
2022/05/18 10:12:58;;;;;;;17.23;12.25;;;27.80;55.40;;;;;;5094758;28;20446;-76
2022/05/18 10:15:24;;;;;;;14.07;11.70;;;27.80;83.30;;;;;;5093807;28;20056;-75
2022/05/18 10:17:54;;;;;;;14.35;11.82;;;27.60;56.10;;;;;;5093967;28;20562;-77
2022/05/18 10:20:32;;;;;;;13.93;11.18;;;27.60;56.80;;;;;;5059963;28;20044;-74
2022/05/18 10:22:59;;;;;;;15.85;11.32;;;27.60;56.90;;;;;;5093432;28;20094;-74
2022/05/18 10:25:34;;;;;;;13.82;10.10;;;27.60;56.80;;;;;;5094657;28;20044;-73
2022/05/18 10:28:13;;;;;;;11.60;9.30;;;27.50;57.10;;;;;;5093306;28;20093;-72
2022/05/18 10:31:01;;;;;;;12.68;10.32;;;27.40;57.80;;;;;;5093204;28;20109;-73
2022/05/18 10:33:41;;;;;;;12.50;10.23;;;27.40;59.10;;;;;;5094396;28;20051;-72
2022/05/18 10:36:24;;;;;;;14.80;11.43;;;27.30;60.40;;;;;;5092905;28;20044;-72
2022/05/18 10:38:54;;;;;;;14.18;11.88;;;27.30;60.10;;;;;;5094034;28;20392;-71
2022/05/18 10:41:26;;;;;;;12.33;10.90;;;27.20;60.80;;;;;;5076445;28;20062;-75
2022/05/18 10:43:54;;;;;;;15.93;11.80;;;;;;;;;;5094528;28;20054;-73
2022/05/18 10:46:27;;;;;;;14.93;12.07;;;;;;;;;;5093985;28;20599;-72
2022/05/18 10:49:28;;;;;;;14.83;10.60;;;27.20;63.10;;;;;;5094066;28;20040;-76
2022/05/18 10:51:54;;;;;;;16.27;11.70;;;27.10;63.90;;;;;;5094124;28;20047;-74
2022/05/18 10:54:27;;;;;;;16.57;12.60;;;27.10;64.80;;;;;;5094266;28;20423;-73
2022/05/18 10:57:12;;;;;;;11.80;9.07;;;27.10;66.10;;;;;;5093040;28;20048;-73
2022/05/18 10:59:48;;;;;;;12.40;9.33;;;27.10;66.00;;;;;;5092778;28;20040;-72
2022/05/18 11:02:29;;;;;;;13.37;10.40;;;;;;;;;;5093630;28;20877;-72
2022/05/18 11:05:11;;;;;;;14.77;10.17;;;27.00;67.20;;;;;;5092918;28;20048;-77
2022/05/18 11:07:37;;;;;;;12.23;10.73;;;27.00;68.70;;;;;;5094028;28;20048;-72
2022/05/18 11:10:03;;;;;;;11.33;8.50;;;27.00;94.10;;;;;;5093561;28;20119;-74
2022/05/18 11:12:29;;;;;;;16.83;9.63;;;26.90;68.50;;;;;;5093535;28;20082;-72
2022/05/18 11:15:33;;;;;;;16.33;9.50;;;26.80;68.60;;;;;;5093732;28;20043;-78
2022/05/18 11:18:31;;;;;;;12.27;9.20;;;26.80;70.00;;;;;;5093453;28;20126;-75
2022/05/18 11:21:30;;;;;;;11.47;8.10;;;26.90;70.20;;;;;;5093137;28;20499;-81
2022/05/18 11:24:14;;;;;;;11.23;8.90;;;26.90;70.10;;;;;;5091851;28;20056;-70
2022/05/18 11:26:56;;;;;;;13.15;10.25;;;26.80;70.50;;;;;;5092314;28;20056;-74
2022/05/18 11:29:27;;;;;;;13.70;10.70;;;26.70;70.90;;;;;;5093307;28;20115;-74
2022/05/18 11:32:15;;;;;;;15.60;10.40;;;26.70;70.60;;;;;;5093214;28;20052;-75
2022/05/18 11:35:01;;;;;;;14.10;9.37;;;26.80;71.20;;;;;;5093075;28;20044;-75
2022/05/18 11:37:52;;;;;;;12.47;9.43;;;26.70;71.40;;;;;;5092004;28;20460;-75
2022/05/18 11:40:41;;;;;;;15.73;9.80;;;26.70;70.10;;;;;;5092580;28;20289;-74
2022/05/18 11:43:33;;;;;;;11.37;8.77;;;26.70;72.10;;;;;;5092124;28;20373;-74
2022/05/18 11:46:40;;;;;;;19.60;11.00;;;26.70;72.60;;;;;;5092849;28;20465;-78
2022/05/18 11:49:39;;;;;;;17.93;10.13;;;26.70;71.80;;;;;;5082376;28;20055;-74
2022/05/18 11:52:24;;;;;;;14.50;10.93;;;26.70;72.40;;;;;;5092806;28;20054;-74
2022/05/18 11:54:49;;;;;;;;;;;26.60;72.90;;;;;;5092437;28;20044;-74
2022/05/18 11:57:38;;;;;;;15.37;10.87;;;26.50;73.00;;;;;;5092818;28;19920;-74
2022/05/18 12:00:12;;;;;;;14.50;10.60;;;26.40;72.90;;;;;;5092728;28;20039;-74
2022/05/18 12:03:08;;;;;;;17.05;11.30;;;26.40;73.00;;;;;;5091706;28;20120;-74
2022/05/18 12:05:54;;;;;;;18.63;13.83;;;26.50;73.50;;;;;;5092911;28;20420;-74
2022/05/18 12:08:47;;;;;;;18.10;14.13;;;26.50;74.30;;;;;;5092368;28;20044;-74
2022/05/18 12:11:22;;;;;;;18.90;14.03;;;26.60;74.60;;;;;;5074821;28;20075;-74
2022/05/18 12:13:54;;;;;;;18.90;13.73;;;26.60;74.50;;;;;;5091801;28;20488;-75
2022/05/18 12:16:47;;;;;;;19.73;13.30;;;26.60;74.90;;;;;;5092370;28;20044;-74
2022/05/18 12:19:25;;;;;;;15.87;11.43;;;26.70;74.80;;;;;;5074272;28;20488;-74
2022/05/18 12:22:06;;;;;;;14.10;10.07;;;26.70;73.90;;;;;;5093043;28;20086;-74
2022/05/18 12:24:33;;;;;;;13.27;8.87;;;26.80;73.30;;;;;;5092176;28;20079;-74
2022/05/18 12:26:59;;;;;;;15.50;8.47;;;26.80;72.20;;;;;;5092721;28;20044;-73
2022/05/18 12:29:27;;;;;;;12.87;7.70;;;26.80;71.30;;;;;;5092383;28;20075;-74
2022/05/18 12:31:55;;;;;;;16.37;12.33;;;26.80;71.20;;;;;;5092503;28;20094;-73
2022/05/18 12:34:35;;;;;;;17.13;13.30;;;26.80;70.90;;;;;;5091400;28;20101;-73
2022/05/18 12:37:22;;;;;;;17.90;15.87;;;26.80;70.80;;;;;;5091713;28;20496;-73
2022/05/18 12:40:06;;;;;;;16.77;13.93;;;26.70;70.30;;;;;;5092279;28;20084;-74
2022/05/18 12:42:39;;;;;;;21.87;16.33;;;26.60;70.20;;;;;;5092322;28;20400;-73
2022/05/18 12:45:26;;;;;;;21.67;14.27;;;26.60;70.80;;;;;;5095012;28;20127;-79
2022/05/18 12:48:12;;;;;;;20.50;15.20;;;26.60;71.00;;;;;;5095233;28;20131;-75
2022/05/18 12:50:50;;;;;;;20.83;16.27;;;26.70;71.10;;;;;;5119696;27;20052;-76
2022/05/18 12:53:23;;;;;;;19.20;17.03;;;26.60;71.30;;;;;;5094811;28;20101;-75
2022/05/18 12:56:29;;;;;;;21.97;18.20;;;26.70;70.30;;;;;;5092958;28;20104;-74
2022/05/18 12:59:02;;;;;;;20.60;17.43;;;26.70;70.90;;;;;;5071582;28;20059;-73
2022/05/18 13:01:30;;;;;;;21.90;18.30;;;26.70;70.40;;;;;;5093762;28;20042;-73
2022/05/18 13:04:09;;;;;;;22.40;17.00;;;26.70;69.50;;;;;;5096146;28;20181;-72
2022/05/18 13:06:35;;;;;;;20.10;16.47;;;26.60;69.30;;;;;;5089999;28;20073;-79
2022/05/18 13:09:19;;;;;;;24.73;16.53;;;26.50;69.10;;;;;;5089551;28;20098;-74
2022/05/18 13:12:17;;;;;;;22.23;17.92;;;26.50;69.10;;;;;;5093137;28;20082;-73
2022/05/18 13:15:11;;;;;;;20.13;16.80;;;26.60;68.80;;;;;;5064013;28;20131;-74
2022/05/18 13:17:46;;;;;;;21.98;16.70;;;26.50;68.70;;;;;;5074832;28;20513;-73
2022/05/18 13:20:40;;;;;;;22.27;16.90;;;26.40;70.70;;;;;;5077364;28;20487;-74
2022/05/18 13:23:33;;;;;;;24.73;16.93;;;26.30;70.40;;;;;;5071392;28;20553;-73
2022/05/18 13:26:00;;;;;;;21.47;15.67;;;26.10;70.80;;;;;;5082139;28;20124;-72
2022/05/18 13:28:30;;;;;;;18.90;15.03;;;26.00;71.50;;;;;;5074442;28;20076;-72